sensor_id;sensor_type;location;lat;lon;timestamp;temperature;humidity
67502;SHT30;54349;52.528;19.760;2022-09-27T00:01:12;24.16;51.38
67502;SHT30;54349;52.528;19.760;2022-09-27T00:03:43;24.13;51.38
67502;SHT30;54349;52.528;19.760;2022-09-27T00:06:24;24.10;51.41
67502;SHT30;54349;52.528;19.760;2022-09-27T00:08:56;24.08;51.41
67502;SHT30;54349;52.528;19.760;2022-09-27T00:11:31;24.06;51.46
67502;SHT30;54349;52.528;19.760;2022-09-27T00:14:06;24.02;51.47
67502;SHT30;54349;52.528;19.760;2022-09-27T00:16:36;24.01;51.46
67502;SHT30;54349;52.528;19.760;2022-09-27T00:19:09;23.99;51.51
67502;SHT30;54349;52.528;19.760;2022-09-27T00:21:41;23.96;51.52
67502;SHT30;54349;52.528;19.760;2022-09-27T00:24:11;23.95;51.56
67502;SHT30;54349;52.528;19.760;2022-09-27T00:26:41;23.92;51.57
67502;SHT30;54349;52.528;19.760;2022-09-27T00:29:10;23.92;51.57
67502;SHT30;54349;52.528;19.760;2022-09-27T00:31:38;23.88;51.60
67502;SHT30;54349;52.528;19.760;2022-09-27T00:34:07;23.88;51.61
67502;SHT30;54349;52.528;19.760;2022-09-27T00:36:49;23.85;51.61
67502;SHT30;54349;52.528;19.760;2022-09-27T00:39:19;23.83;51.65
67502;SHT30;54349;52.528;19.760;2022-09-27T00:41:47;23.82;51.67
67502;SHT30;54349;52.528;19.760;2022-09-27T00:47:02;23.79;51.70
67502;SHT30;54349;52.528;19.760;2022-09-27T00:50:02;23.76;51.72
67502;SHT30;54349;52.528;19.760;2022-09-27T00:55:41;23.73;51.76
67502;SHT30;54349;52.528;19.760;2022-09-27T00:58:19;23.71;51.81
67502;SHT30;54349;52.528;19.760;2022-09-27T01:00:56;23.69;51.82
67502;SHT30;54349;52.528;19.760;2022-09-27T01:03:41;23.68;51.86
67502;SHT30;54349;52.528;19.760;2022-09-27T01:06:20;23.66;51.85
67502;SHT30;54349;52.528;19.760;2022-09-27T01:08:49;23.65;51.90
67502;SHT30;54349;52.528;19.760;2022-09-27T01:14:03;23.63;51.91
67502;SHT30;54349;52.528;19.760;2022-09-27T01:31:58;23.53;51.98
67502;SHT30;54349;52.528;19.760;2022-09-27T01:40:16;23.49;51.98
67502;SHT30;54349;52.528;19.760;2022-09-27T01:46:28;23.46;52.01
67502;SHT30;54349;52.528;19.760;2022-09-27T01:49:55;23.45;52.09
67502;SHT30;54349;52.528;19.760;2022-09-27T01:52:44;23.43;52.10
67502;SHT30;54349;52.528;19.760;2022-09-27T01:55:24;23.43;52.10
67502;SHT30;54349;52.528;19.760;2022-09-27T01:58:56;23.42;52.11
67502;SHT30;54349;52.528;19.760;2022-09-27T02:01:57;23.40;52.11
67502;SHT30;54349;52.528;19.760;2022-09-27T02:04:34;23.39;52.12
67502;SHT30;54349;52.528;19.760;2022-09-27T02:07:15;23.38;52.12
67502;SHT30;54349;52.528;19.760;2022-09-27T02:12:47;23.36;52.14
67502;SHT30;54349;52.528;19.760;2022-09-27T02:15:24;23.35;52.16
67502;SHT30;54349;52.528;19.760;2022-09-27T02:18:17;23.33;52.17
67502;SHT30;54349;52.528;19.760;2022-09-27T02:21:41;23.32;52.20
67502;SHT30;54349;52.528;19.760;2022-09-27T02:24:29;23.32;52.18
67502;SHT30;54349;52.528;19.760;2022-09-27T02:27:30;23.31;52.19
67502;SHT30;54349;52.528;19.760;2022-09-27T02:30:10;23.30;52.20
67502;SHT30;54349;52.528;19.760;2022-09-27T02:32:41;23.29;52.21
67502;SHT30;54349;52.528;19.760;2022-09-27T02:37:58;23.27;52.24
67502;SHT30;54349;52.528;19.760;2022-09-27T02:40:30;23.28;52.26
67502;SHT30;54349;52.528;19.760;2022-09-27T02:43:03;23.26;52.21
67502;SHT30;54349;52.528;19.760;2022-09-27T02:46:16;23.26;52.25
67502;SHT30;54349;52.528;19.760;2022-09-27T03:01:01;23.21;52.26
67502;SHT30;54349;52.528;19.760;2022-09-27T03:04:28;23.20;52.30
67502;SHT30;54349;52.528;19.760;2022-09-27T03:07:05;23.19;52.30
67502;SHT30;54349;52.528;19.760;2022-09-27T03:09:44;23.18;52.30
67502;SHT30;54349;52.528;19.760;2022-09-27T03:12:17;23.17;52.30
67502;SHT30;54349;52.528;19.760;2022-09-27T03:14:53;23.17;52.30
67502;SHT30;54349;52.528;19.760;2022-09-27T03:17:54;23.15;52.30
67502;SHT30;54349;52.528;19.760;2022-09-27T03:20:40;23.15;52.30
67502;SHT30;54349;52.528;19.760;2022-09-27T03:23:27;23.14;52.30
67502;SHT30;54349;52.528;19.760;2022-09-27T03:25:56;23.14;52.30
67502;SHT30;54349;52.528;19.760;2022-09-27T03:28:24;23.13;52.29
67502;SHT30;54349;52.528;19.760;2022-09-27T03:30:53;23.12;52.30
67502;SHT30;54349;52.528;19.760;2022-09-27T03:33:41;23.12;52.28
67502;SHT30;54349;52.528;19.760;2022-09-27T03:36:10;23.11;52.29
67502;SHT30;54349;52.528;19.760;2022-09-27T03:38:39;23.10;52.30
67502;SHT30;54349;52.528;19.760;2022-09-27T03:41:09;23.10;52.25
67502;SHT30;54349;52.528;19.760;2022-09-27T03:43:38;23.09;52.26
67502;SHT30;54349;52.528;19.760;2022-09-27T03:46:06;23.08;52.29
67502;SHT30;54349;52.528;19.760;2022-09-27T03:48:35;23.07;52.29
67502;SHT30;54349;52.528;19.760;2022-09-27T03:51:04;23.08;52.28
67502;SHT30;54349;52.528;19.760;2022-09-27T03:53:33;23.06;52.24
67502;SHT30;54349;52.528;19.760;2022-09-27T03:56:01;23.06;52.26
67502;SHT30;54349;52.528;19.760;2022-09-27T03:58:29;23.06;52.27
67502;SHT30;54349;52.528;19.760;2022-09-27T04:00:57;23.05;52.28
67502;SHT30;54349;52.528;19.760;2022-09-27T04:03:27;23.04;52.22
67502;SHT30;54349;52.528;19.760;2022-09-27T04:06:11;23.04;52.29
67502;SHT30;54349;52.528;19.760;2022-09-27T04:08:42;23.03;52.23
67502;SHT30;54349;52.528;19.760;2022-09-27T04:11:10;23.03;52.29
67502;SHT30;54349;52.528;19.760;2022-09-27T04:13:40;23.01;52.30
67502;SHT30;54349;52.528;19.760;2022-09-27T04:16:08;23.01;52.30
67502;SHT30;54349;52.528;19.760;2022-09-27T04:18:50;23.01;52.27
67502;SHT30;54349;52.528;19.760;2022-09-27T04:21:34;23.00;52.30
67502;SHT30;54349;52.528;19.760;2022-09-27T04:24:03;22.99;52.30
67502;SHT30;54349;52.528;19.760;2022-09-27T04:26:32;22.99;52.30
67502;SHT30;54349;52.528;19.760;2022-09-27T04:29:02;22.97;52.30
67502;SHT30;54349;52.528;19.760;2022-09-27T04:31:31;22.97;52.30
67502;SHT30;54349;52.528;19.760;2022-09-27T04:34:18;22.96;52.32
67502;SHT30;54349;52.528;19.760;2022-09-27T04:37:12;22.96;52.40
67502;SHT30;54349;52.528;19.760;2022-09-27T04:39:44;22.95;52.44
67502;SHT30;54349;52.528;19.760;2022-09-27T04:42:13;22.94;52.51
67502;SHT30;54349;52.528;19.760;2022-09-27T04:44:42;22.94;52.58
67502;SHT30;54349;52.528;19.760;2022-09-27T04:47:11;22.94;52.64
67502;SHT30;54349;52.528;19.760;2022-09-27T04:49:41;22.94;52.66
67502;SHT30;54349;52.528;19.760;2022-09-27T04:52:09;22.93;52.69
67502;SHT30;54349;52.528;19.760;2022-09-27T04:54:37;22.93;52.71
67502;SHT30;54349;52.528;19.760;2022-09-27T04:57:10;22.92;52.75
67502;SHT30;54349;52.528;19.760;2022-09-27T04:59:39;22.92;52.71
67502;SHT30;54349;52.528;19.760;2022-09-27T05:02:08;22.91;52.72
67502;SHT30;54349;52.528;19.760;2022-09-27T05:04:56;22.91;52.81
67502;SHT30;54349;52.528;19.760;2022-09-27T05:07:28;22.89;52.84
67502;SHT30;54349;52.528;19.760;2022-09-27T05:10:01;22.89;52.87
67502;SHT30;54349;52.528;19.760;2022-09-27T05:12:30;22.88;52.89
67502;SHT30;54349;52.528;19.760;2022-09-27T05:15:02;22.87;52.90
67502;SHT30;54349;52.528;19.760;2022-09-27T05:17:37;22.86;52.90
67502;SHT30;54349;52.528;19.760;2022-09-27T05:20:24;22.86;52.92
67502;SHT30;54349;52.528;19.760;2022-09-27T05:23:09;22.85;52.98
67502;SHT30;54349;52.528;19.760;2022-09-27T05:25:38;22.84;53.01
67502;SHT30;54349;52.528;19.760;2022-09-27T05:28:06;22.83;53.00
67502;SHT30;54349;52.528;19.760;2022-09-27T05:30:36;22.83;53.00
67502;SHT30;54349;52.528;19.760;2022-09-27T05:33:12;22.83;53.02
67502;SHT30;54349;52.528;19.760;2022-09-27T05:35:54;22.82;53.02
67502;SHT30;54349;52.528;19.760;2022-09-27T05:38:27;22.81;53.04
67502;SHT30;54349;52.528;19.760;2022-09-27T05:40:58;22.81;53.06
67502;SHT30;54349;52.528;19.760;2022-09-27T05:43:26;22.80;53.08
67502;SHT30;54349;52.528;19.760;2022-09-27T05:45:58;22.78;53.09
67502;SHT30;54349;52.528;19.760;2022-09-27T05:48:27;22.79;53.10
67502;SHT30;54349;52.528;19.760;2022-09-27T05:51:03;22.79;53.10
67502;SHT30;54349;52.528;19.760;2022-09-27T05:53:33;22.77;53.12
67502;SHT30;54349;52.528;19.760;2022-09-27T05:56:02;22.77;53.10
67502;SHT30;54349;52.528;19.760;2022-09-27T05:58:58;22.77;53.11
67502;SHT30;54349;52.528;19.760;2022-09-27T06:01:31;22.76;53.10
67502;SHT30;54349;52.528;19.760;2022-09-27T06:04:19;22.75;53.11
67502;SHT30;54349;52.528;19.760;2022-09-27T06:06:48;22.75;53.12
67502;SHT30;54349;52.528;19.760;2022-09-27T06:09:16;22.75;53.10
67502;SHT30;54349;52.528;19.760;2022-09-27T06:11:46;22.75;53.10
67502;SHT30;54349;52.528;19.760;2022-09-27T06:14:16;22.74;53.11
67502;SHT30;54349;52.528;19.760;2022-09-27T06:16:58;22.74;53.09
67502;SHT30;54349;52.528;19.760;2022-09-27T06:19:31;22.73;53.10
67502;SHT30;54349;52.528;19.760;2022-09-27T06:21:59;22.73;53.09
67502;SHT30;54349;52.528;19.760;2022-09-27T06:24:36;22.73;53.07
67502;SHT30;54349;52.528;19.760;2022-09-27T06:27:09;22.72;53.07
67502;SHT30;54349;52.528;19.760;2022-09-27T06:29:58;22.73;53.09
67502;SHT30;54349;52.528;19.760;2022-09-27T06:32:45;22.73;53.08
67502;SHT30;54349;52.528;19.760;2022-09-27T06:35:19;22.72;53.06
67502;SHT30;54349;52.528;19.760;2022-09-27T06:37:48;22.71;53.05
67502;SHT30;54349;52.528;19.760;2022-09-27T06:40:16;22.71;53.05
67502;SHT30;54349;52.528;19.760;2022-09-27T06:43:05;22.70;53.05
67502;SHT30;54349;52.528;19.760;2022-09-27T06:46:12;22.70;53.07
67502;SHT30;54349;52.528;19.760;2022-09-27T06:49:13;22.70;53.10
67502;SHT30;54349;52.528;19.760;2022-09-27T06:51:43;22.69;53.01
67502;SHT30;54349;52.528;19.760;2022-09-27T06:54:11;22.69;53.02
67502;SHT30;54349;52.528;19.760;2022-09-27T06:56:39;22.70;53.02
67502;SHT30;54349;52.528;19.760;2022-09-27T06:59:08;22.70;53.00
67502;SHT30;54349;52.528;19.760;2022-09-27T07:02:13;22.68;53.00
67502;SHT30;54349;52.528;19.760;2022-09-27T07:05:00;22.69;53.00
67502;SHT30;54349;52.528;19.760;2022-09-27T07:07:57;22.68;53.00
67502;SHT30;54349;52.528;19.760;2022-09-27T07:10:27;22.69;53.01
67502;SHT30;54349;52.528;19.760;2022-09-27T07:13:04;22.68;53.00
67502;SHT30;54349;52.528;19.760;2022-09-27T07:15:35;22.68;52.99
67502;SHT30;54349;52.528;19.760;2022-09-27T07:18:10;22.67;53.00
67502;SHT30;54349;52.528;19.760;2022-09-27T07:20:38;22.67;52.97
67502;SHT30;54349;52.528;19.760;2022-09-27T07:23:07;22.68;52.99
67502;SHT30;54349;52.528;19.760;2022-09-27T07:25:37;22.69;52.99
67502;SHT30;54349;52.528;19.760;2022-09-27T07:28:06;22.68;52.96
67502;SHT30;54349;52.528;19.760;2022-09-27T07:30:47;22.68;52.96
67502;SHT30;54349;52.528;19.760;2022-09-27T07:33:16;22.69;52.90
67502;SHT30;54349;52.528;19.760;2022-09-27T07:35:44;22.68;52.91
67502;SHT30;54349;52.528;19.760;2022-09-27T07:38:12;22.68;52.90
67502;SHT30;54349;52.528;19.760;2022-09-27T07:40:41;22.68;52.91
67502;SHT30;54349;52.528;19.760;2022-09-27T07:43:10;22.69;52.90
67502;SHT30;54349;52.528;19.760;2022-09-27T07:45:39;22.69;52.90
67502;SHT30;54349;52.528;19.760;2022-09-27T07:48:33;22.68;52.89
67502;SHT30;54349;52.528;19.760;2022-09-27T07:51:15;22.68;52.83
67502;SHT30;54349;52.528;19.760;2022-09-27T07:54:00;22.69;52.84
67502;SHT30;54349;52.528;19.760;2022-09-27T07:56:45;22.69;52.85
67502;SHT30;54349;52.528;19.760;2022-09-27T07:59:16;22.68;52.81
67502;SHT30;54349;52.528;19.760;2022-09-27T08:01:45;22.69;52.79
67502;SHT30;54349;52.528;19.760;2022-09-27T08:04:13;22.69;52.80
67502;SHT30;54349;52.528;19.760;2022-09-27T08:06:41;22.69;52.80
67502;SHT30;54349;52.528;19.760;2022-09-27T08:09:09;22.69;52.80
67502;SHT30;54349;52.528;19.760;2022-09-27T08:11:40;22.70;52.77
67502;SHT30;54349;52.528;19.760;2022-09-27T08:14:08;22.70;52.75
67502;SHT30;54349;52.528;19.760;2022-09-27T08:16:39;22.70;52.74
67502;SHT30;54349;52.528;19.760;2022-09-27T08:19:34;22.70;52.73
67502;SHT30;54349;52.528;19.760;2022-09-27T08:22:06;22.70;52.71
67502;SHT30;54349;52.528;19.760;2022-09-27T08:24:43;22.70;52.69
67502;SHT30;54349;52.528;19.760;2022-09-27T08:27:29;22.70;52.70
67502;SHT30;54349;52.528;19.760;2022-09-27T08:29:59;22.70;52.70
67502;SHT30;54349;52.528;19.760;2022-09-27T08:32:28;22.69;52.70
67502;SHT30;54349;52.528;19.760;2022-09-27T08:35:00;22.70;52.70
67502;SHT30;54349;52.528;19.760;2022-09-27T08:37:29;22.70;52.70
67502;SHT30;54349;52.528;19.760;2022-09-27T08:39:57;22.70;52.69
67502;SHT30;54349;52.528;19.760;2022-09-27T08:45:29;22.70;52.69
67502;SHT30;54349;52.528;19.760;2022-09-27T08:48:08;22.70;52.68
67502;SHT30;54349;52.528;19.760;2022-09-27T08:50:41;22.70;52.63
67502;SHT30;54349;52.528;19.760;2022-09-27T08:53:30;22.70;52.62
67502;SHT30;54349;52.528;19.760;2022-09-27T08:56:07;22.70;52.64
67502;SHT30;54349;52.528;19.760;2022-09-27T08:59:24;22.71;52.62
67502;SHT30;54349;52.528;19.760;2022-09-27T09:01:48;22.71;52.61
67502;SHT30;54349;52.528;19.760;2022-09-27T09:04:34;22.71;52.60
67502;SHT30;54349;52.528;19.760;2022-09-27T09:07:19;22.71;52.60
67502;SHT30;54349;52.528;19.760;2022-09-27T09:25:05;22.72;52.50
67502;SHT30;54349;52.528;19.760;2022-09-27T09:33:27;22.74;52.50
67502;SHT30;54349;52.528;19.760;2022-09-27T09:36:03;22.74;52.49
67502;SHT30;54349;52.528;19.760;2022-09-27T09:38:49;22.74;52.50
67502;SHT30;54349;52.528;19.760;2022-09-27T09:46:59;22.75;52.42
67502;SHT30;54349;52.528;19.760;2022-09-27T09:49:44;22.75;52.41
67502;SHT30;54349;52.528;19.760;2022-09-27T09:52:19;22.75;52.40
67502;SHT30;54349;52.528;19.760;2022-09-27T09:57:42;22.77;52.40
67502;SHT30;54349;52.528;19.760;2022-09-27T10:00:50;22.77;52.40
67502;SHT30;54349;52.528;19.760;2022-09-27T10:03:27;22.77;52.40
67502;SHT30;54349;52.528;19.760;2022-09-27T10:05:55;22.77;52.40
67502;SHT30;54349;52.528;19.760;2022-09-27T10:08:23;22.77;52.39
67502;SHT30;54349;52.528;19.760;2022-09-27T10:11:17;22.78;52.36
67502;SHT30;54349;52.528;19.760;2022-09-27T10:14:18;22.79;52.37
67502;SHT30;54349;52.528;19.760;2022-09-27T10:16:57;22.79;52.34
67502;SHT30;54349;52.528;19.760;2022-09-27T10:19:31;22.79;52.30
67502;SHT30;54349;52.528;19.760;2022-09-27T10:22:12;22.79;52.31
67502;SHT30;54349;52.528;19.760;2022-09-27T10:27:47;22.80;52.30
67502;SHT30;54349;52.528;19.760;2022-09-27T10:30:26;22.81;52.30
67502;SHT30;54349;52.528;19.760;2022-09-27T10:33:13;22.81;52.30
67502;SHT30;54349;52.528;19.760;2022-09-27T10:36:00;22.82;52.30
67502;SHT30;54349;52.528;19.760;2022-09-27T10:38:31;22.82;52.30
67502;SHT30;54349;52.528;19.760;2022-09-27T10:41:55;22.82;52.29
67502;SHT30;54349;52.528;19.760;2022-09-27T10:44:33;22.82;52.27
67502;SHT30;54349;52.528;19.760;2022-09-27T10:47:28;22.84;52.26
67502;SHT30;54349;52.528;19.760;2022-09-27T10:50:23;22.85;52.24
67502;SHT30;54349;52.528;19.760;2022-09-27T10:53:26;22.84;52.22
67502;SHT30;54349;52.528;19.760;2022-09-27T10:55:59;22.86;52.20
67502;SHT30;54349;52.528;19.760;2022-09-27T11:03:54;22.87;52.18
67502;SHT30;54349;52.528;19.760;2022-09-27T11:06:28;22.87;52.17
67502;SHT30;54349;52.528;19.760;2022-09-27T11:09:10;22.88;52.11
67502;SHT30;54349;52.528;19.760;2022-09-27T11:12:09;22.89;52.13
67502;SHT30;54349;52.528;19.760;2022-09-27T11:14:41;22.89;52.11
67502;SHT30;54349;52.528;19.760;2022-09-27T11:17:25;22.90;52.10
67502;SHT30;54349;52.528;19.760;2022-09-27T11:35:42;22.92;52.01
67502;SHT30;54349;52.528;19.760;2022-09-27T11:38:56;22.92;52.00
67502;SHT30;54349;52.528;19.760;2022-09-27T11:54:14;22.99;51.90
67502;SHT30;54349;52.528;19.760;2022-09-27T11:57:17;23.01;51.90
67502;SHT30;54349;52.528;19.760;2022-09-27T12:06:12;23.02;51.87
67502;SHT30;54349;52.528;19.760;2022-09-27T12:11:21;23.04;51.81
67502;SHT30;54349;52.528;19.760;2022-09-27T12:14:05;23.05;51.80
67502;SHT30;54349;52.528;19.760;2022-09-27T12:16:58;23.07;51.79
67502;SHT30;54349;52.528;19.760;2022-09-27T12:19:33;23.08;51.72
67502;SHT30;54349;52.528;19.760;2022-09-27T12:22:15;23.10;51.70
67502;SHT30;54349;52.528;19.760;2022-09-27T12:25:15;23.11;51.67
67502;SHT30;54349;52.528;19.760;2022-09-27T12:28:11;23.12;51.61
67502;SHT30;54349;52.528;19.760;2022-09-27T12:30:53;23.14;51.62
67502;SHT30;54349;52.528;19.760;2022-09-27T12:36:32;23.17;51.62
67502;SHT30;54349;52.528;19.760;2022-09-27T12:39:21;23.18;51.61
67502;SHT30;54349;52.528;19.760;2022-09-27T12:42:59;23.20;51.67
67502;SHT30;54349;52.528;19.760;2022-09-27T12:51:48;23.26;51.66
67502;SHT30;54349;52.528;19.760;2022-09-27T13:00:09;23.30;51.77
67502;SHT30;54349;52.528;19.760;2022-09-27T13:14:43;23.33;51.91
67502;SHT30;54349;52.528;19.760;2022-09-27T13:28:56;23.37;51.90
67502;SHT30;54349;52.528;19.760;2022-09-27T13:40:49;23.40;51.81
67502;SHT30;54349;52.528;19.760;2022-09-27T13:46:46;23.39;51.80
67502;SHT30;54349;52.528;19.760;2022-09-27T13:58:45;23.42;51.76
67502;SHT30;54349;52.528;19.760;2022-09-27T14:01:51;23.43;51.77
67502;SHT30;54349;52.528;19.760;2022-09-27T14:04:34;23.43;51.76
67502;SHT30;54349;52.528;19.760;2022-09-27T14:07:14;23.44;51.80
67502;SHT30;54349;52.528;19.760;2022-09-27T14:09:53;23.45;51.88
67502;SHT30;54349;52.528;19.760;2022-09-27T14:12:31;23.46;51.92
67502;SHT30;54349;52.528;19.760;2022-09-27T14:15:11;23.47;51.90
67502;SHT30;54349;52.528;19.760;2022-09-27T14:17:50;23.48;51.86
67502;SHT30;54349;52.528;19.760;2022-09-27T14:23:48;23.48;51.82
67502;SHT30;54349;52.528;19.760;2022-09-27T14:26:24;23.48;51.99
67502;SHT30;54349;52.528;19.760;2022-09-27T14:28:55;23.49;51.98
67502;SHT30;54349;52.528;19.760;2022-09-27T14:31:30;23.49;51.98
67502;SHT30;54349;52.528;19.760;2022-09-27T14:34:15;23.49;52.07
67502;SHT30;54349;52.528;19.760;2022-09-27T14:36:46;23.49;52.19
67502;SHT30;54349;52.528;19.760;2022-09-27T14:39:45;23.50;52.35
67502;SHT30;54349;52.528;19.760;2022-09-27T14:42:31;23.50;52.46
67502;SHT30;54349;52.528;19.760;2022-09-27T14:45:17;23.50;52.59
67502;SHT30;54349;52.528;19.760;2022-09-27T14:47:51;23.51;52.70
67502;SHT30;54349;52.528;19.760;2022-09-27T14:52:55;23.52;52.82
67502;SHT30;54349;52.528;19.760;2022-09-27T14:55:27;23.52;52.92
67502;SHT30;54349;52.528;19.760;2022-09-27T14:58:01;23.53;52.97
67502;SHT30;54349;52.528;19.760;2022-09-27T15:00:31;23.52;53.03
67502;SHT30;54349;52.528;19.760;2022-09-27T15:03:04;23.53;53.14
67502;SHT30;54349;52.528;19.760;2022-09-27T15:05:36;23.53;53.23
67502;SHT30;54349;52.528;19.760;2022-09-27T15:08:10;23.51;53.27
67502;SHT30;54349;52.528;19.760;2022-09-27T15:10:42;23.52;53.19
67502;SHT30;54349;52.528;19.760;2022-09-27T15:13:14;23.52;53.16
67502;SHT30;54349;52.528;19.760;2022-09-27T15:15:49;23.51;53.22
67502;SHT30;54349;52.528;19.760;2022-09-27T15:21:05;23.52;53.55
67502;SHT30;54349;52.528;19.760;2022-09-27T15:23:41;23.52;53.69
67502;SHT30;54349;52.528;19.760;2022-09-27T15:26:19;23.53;53.83
67502;SHT30;54349;52.528;19.760;2022-09-27T15:28:54;23.52;53.85
67502;SHT30;54349;52.528;19.760;2022-09-27T15:31:30;23.51;53.94
67502;SHT30;54349;52.528;19.760;2022-09-27T15:34:03;23.52;54.05
67502;SHT30;54349;52.528;19.760;2022-09-27T15:36:53;23.52;54.09
67502;SHT30;54349;52.528;19.760;2022-09-27T15:39:40;23.51;54.14
67502;SHT30;54349;52.528;19.760;2022-09-27T15:42:09;23.51;54.11
67502;SHT30;54349;52.528;19.760;2022-09-27T15:50:45;23.50;54.07
67502;SHT30;54349;52.528;19.760;2022-09-27T15:52:54;23.50;54.06
67502;SHT30;54349;52.528;19.760;2022-09-27T15:55:24;23.49;54.11
67502;SHT30;54349;52.528;19.760;2022-09-27T15:57:57;23.48;54.18
67502;SHT30;54349;52.528;19.760;2022-09-27T16:00:30;23.47;54.16
67502;SHT30;54349;52.528;19.760;2022-09-27T16:02:59;23.48;54.11
67502;SHT30;54349;52.528;19.760;2022-09-27T16:05:28;23.48;54.14
67502;SHT30;54349;52.528;19.760;2022-09-27T16:07:56;23.47;54.13
67502;SHT30;54349;52.528;19.760;2022-09-27T16:10:29;23.46;54.07
67502;SHT30;54349;52.528;19.760;2022-09-27T16:13:11;23.45;54.16
67502;SHT30;54349;52.528;19.760;2022-09-27T16:15:39;23.45;54.10
67502;SHT30;54349;52.528;19.760;2022-09-27T16:18:08;23.45;54.11
67502;SHT30;54349;52.528;19.760;2022-09-27T16:20:37;23.44;54.12
67502;SHT30;54349;52.528;19.760;2022-09-27T16:23:05;23.43;54.08
67502;SHT30;54349;52.528;19.760;2022-09-27T16:25:33;23.43;54.02
67502;SHT30;54349;52.528;19.760;2022-09-27T16:28:02;23.43;54.03
67502;SHT30;54349;52.528;19.760;2022-09-27T16:30:31;23.42;53.94
67502;SHT30;54349;52.528;19.760;2022-09-27T16:33:00;23.41;53.94
67502;SHT30;54349;52.528;19.760;2022-09-27T16:35:29;23.40;53.99
67502;SHT30;54349;52.528;19.760;2022-09-27T16:37:57;23.39;54.00
67502;SHT30;54349;52.528;19.760;2022-09-27T16:40:25;23.39;53.91
67502;SHT30;54349;52.528;19.760;2022-09-27T16:42:54;23.38;53.86
67502;SHT30;54349;52.528;19.760;2022-09-27T16:45:22;23.38;53.90
67502;SHT30;54349;52.528;19.760;2022-09-27T16:47:59;23.36;53.94
67502;SHT30;54349;52.528;19.760;2022-09-27T16:50:28;23.35;53.98
67502;SHT30;54349;52.528;19.760;2022-09-27T16:53:15;23.33;53.89
67502;SHT30;54349;52.528;19.760;2022-09-27T16:55:43;23.32;53.91
67502;SHT30;54349;52.528;19.760;2022-09-27T16:58:12;23.32;53.89
67502;SHT30;54349;52.528;19.760;2022-09-27T17:00:40;23.31;53.77
67502;SHT30;54349;52.528;19.760;2022-09-27T17:03:09;23.29;53.71
67502;SHT30;54349;52.528;19.760;2022-09-27T17:05:37;23.28;53.67
67502;SHT30;54349;52.528;19.760;2022-09-27T17:08:05;23.26;53.67
67502;SHT30;54349;52.528;19.760;2022-09-27T17:10:33;23.26;53.70
67502;SHT30;54349;52.528;19.760;2022-09-27T17:13:02;23.25;53.67
67502;SHT30;54349;52.528;19.760;2022-09-27T17:15:30;23.25;53.64
67502;SHT30;54349;52.528;19.760;2022-09-27T17:17:58;23.23;53.66
67502;SHT30;54349;52.528;19.760;2022-09-27T17:20:26;23.22;53.62
67502;SHT30;54349;52.528;19.760;2022-09-27T17:22:55;23.21;53.60
67502;SHT30;54349;52.528;19.760;2022-09-27T17:25:23;23.20;53.60
67502;SHT30;54349;52.528;19.760;2022-09-27T17:27:51;23.20;53.60
67502;SHT30;54349;52.528;19.760;2022-09-27T17:30:19;23.18;53.60
67502;SHT30;54349;52.528;19.760;2022-09-27T17:32:47;23.17;53.53
67502;SHT30;54349;52.528;19.760;2022-09-27T17:35:15;23.17;53.56
67502;SHT30;54349;52.528;19.760;2022-09-27T17:37:44;23.15;53.57
67502;SHT30;54349;52.528;19.760;2022-09-27T17:40:13;23.14;53.57
67502;SHT30;54349;52.528;19.760;2022-09-27T17:42:42;23.13;53.58
67502;SHT30;54349;52.528;19.760;2022-09-27T17:45:10;23.12;53.60
67502;SHT30;54349;52.528;19.760;2022-09-27T17:47:39;23.11;53.60
67502;SHT30;54349;52.528;19.760;2022-09-27T17:50:26;23.10;53.60
67502;SHT30;54349;52.528;19.760;2022-09-27T17:52:55;23.09;53.63
67502;SHT30;54349;52.528;19.760;2022-09-27T17:55:25;23.09;53.68
67502;SHT30;54349;52.528;19.760;2022-09-27T17:57:54;23.08;53.91
67502;SHT30;54349;52.528;19.760;2022-09-27T18:00:23;23.08;54.45
67502;SHT30;54349;52.528;19.760;2022-09-27T18:02:51;23.07;55.14
67502;SHT30;54349;52.528;19.760;2022-09-27T18:05:19;23.07;55.67
67502;SHT30;54349;52.528;19.760;2022-09-27T18:07:48;23.07;56.01
67502;SHT30;54349;52.528;19.760;2022-09-27T18:10:16;23.08;56.43
67502;SHT30;54349;52.528;19.760;2022-09-27T18:12:44;23.06;56.60
67502;SHT30;54349;52.528;19.760;2022-09-27T18:15:12;23.06;56.57
67502;SHT30;54349;52.528;19.760;2022-09-27T18:17:43;23.07;56.60
67502;SHT30;54349;52.528;19.760;2022-09-27T18:20:25;23.06;56.66
67502;SHT30;54349;52.528;19.760;2022-09-27T18:22:53;23.06;56.62
67502;SHT30;54349;52.528;19.760;2022-09-27T18:25:21;23.06;56.65
67502;SHT30;54349;52.528;19.760;2022-09-27T18:27:51;23.05;56.61
67502;SHT30;54349;52.528;19.760;2022-09-27T18:30:22;23.05;56.57
67502;SHT30;54349;52.528;19.760;2022-09-27T18:32:51;23.04;56.54
67502;SHT30;54349;52.528;19.760;2022-09-27T18:35:37;23.04;56.47
67502;SHT30;54349;52.528;19.760;2022-09-27T18:38:05;23.03;56.32
67502;SHT30;54349;52.528;19.760;2022-09-27T18:40:35;23.02;56.21
67502;SHT30;54349;52.528;19.760;2022-09-27T18:43:23;23.02;56.20
67502;SHT30;54349;52.528;19.760;2022-09-27T18:45:52;23.00;56.14
67502;SHT30;54349;52.528;19.760;2022-09-27T18:48:20;23.01;56.07
67502;SHT30;54349;52.528;19.760;2022-09-27T18:50:48;23.00;56.01
67502;SHT30;54349;52.528;19.760;2022-09-27T18:53:16;23.00;56.04
67502;SHT30;54349;52.528;19.760;2022-09-27T18:55:45;22.99;56.19
67502;SHT30;54349;52.528;19.760;2022-09-27T18:58:13;23.00;56.48
67502;SHT30;54349;52.528;19.760;2022-09-27T19:00:42;23.01;56.76
67502;SHT30;54349;52.528;19.760;2022-09-27T19:03:14;23.02;56.99
67502;SHT30;54349;52.528;19.760;2022-09-27T19:05:42;23.02;57.25
67502;SHT30;54349;52.528;19.760;2022-09-27T19:08:11;23.03;57.43
67502;SHT30;54349;52.528;19.760;2022-09-27T19:10:40;23.04;57.55
67502;SHT30;54349;52.528;19.760;2022-09-27T19:13:08;23.05;57.70
67502;SHT30;54349;52.528;19.760;2022-09-27T19:15:36;23.05;57.78
67502;SHT30;54349;52.528;19.760;2022-09-27T19:18:04;23.06;57.79
67502;SHT30;54349;52.528;19.760;2022-09-27T19:20:32;23.07;57.87
67502;SHT30;54349;52.528;19.760;2022-09-27T19:23:01;23.08;57.83
67502;SHT30;54349;52.528;19.760;2022-09-27T19:25:29;23.09;57.86
67502;SHT30;54349;52.528;19.760;2022-09-27T19:27:57;23.09;57.84
67502;SHT30;54349;52.528;19.760;2022-09-27T19:30:26;23.11;57.82
67502;SHT30;54349;52.528;19.760;2022-09-27T19:32:54;23.12;57.85
67502;SHT30;54349;52.528;19.760;2022-09-27T19:35:22;23.12;57.85